createdAt,value
2023-01-29T00:01:53.164Z,17.58
2023-01-29T00:04:59.115Z,16.20
2023-01-29T00:08:02.533Z,19.05
2023-01-29T00:11:09.021Z,20.33
2023-01-29T00:14:12.628Z,17.43
2023-01-29T00:17:16.323Z,17.35
2023-01-29T00:20:20.099Z,19.05
2023-01-29T00:23:25.323Z,17.05
2023-01-29T00:26:29.460Z,17.98
2023-01-29T00:29:32.906Z,19.20
2023-01-29T00:32:36.510Z,18.52
2023-01-29T00:35:41.151Z,19.37
2023-01-29T00:38:44.503Z,17.58
2023-01-29T00:42:06.564Z,18.75
2023-01-29T00:45:11.538Z,16.47
2023-01-29T00:48:14.920Z,17.25
2023-01-29T00:51:19.602Z,17.95
2023-01-29T00:54:23.334Z,18.35
2023-01-29T00:57:29.282Z,17.62
2023-01-29T01:00:33.701Z,19.85
2023-01-29T01:03:42.502Z,19.92
2023-01-29T01:06:47.771Z,18.80
2023-01-29T01:10:09.493Z,20.12
2023-01-29T01:13:13.108Z,17.87
2023-01-29T01:16:18.909Z,19.10
2023-01-29T01:19:22.559Z,18.37
2023-01-29T01:22:26.100Z,17.23
2023-01-29T01:25:29.726Z,18.87
2023-01-29T01:28:33.091Z,16.83
2023-01-29T01:31:36.899Z,18.33
2023-01-29T01:34:40.811Z,18.08
2023-01-29T01:37:44.704Z,16.17
2023-01-29T01:40:48.132Z,20.55
2023-01-29T01:43:55.834Z,17.55
2023-01-29T01:47:01.989Z,19.37
2023-01-29T01:50:16.117Z,17.45
2023-01-29T01:53:26.854Z,18.67
2023-01-29T01:56:40.621Z,16.98
2023-01-29T01:59:50.568Z,18.65
2023-01-29T02:03:13.947Z,17.73
2023-01-29T02:06:36.559Z,17.92
2023-01-29T02:09:46.853Z,18.10
2023-01-29T02:12:51.624Z,19.27
2023-01-29T02:15:54.897Z,18.00
2023-01-29T02:18:59.818Z,17.33
2023-01-29T02:22:29.384Z,16.58
2023-01-29T02:25:48.991Z,17.90
2023-01-29T02:28:56.798Z,17.35
2023-01-29T02:32:29.435Z,16.87
2023-01-29T02:35:39.407Z,17.58
2023-01-29T02:39:02.108Z,16.52
2023-01-29T02:42:35.984Z,15.27
2023-01-29T02:45:53.707Z,17.00
2023-01-29T02:49:05.872Z,18.48
2023-01-29T02:52:18.580Z,17.37
2023-01-29T02:55:30.071Z,18.67
2023-01-29T02:58:47.914Z,16.42
2023-01-29T03:02:05.510Z,16.98
2023-01-29T03:05:17.711Z,14.55
2023-01-29T03:08:37.354Z,16.62
2023-01-29T03:11:45.988Z,14.95
2023-01-29T03:15:11.324Z,16.57
2023-01-29T03:18:19.748Z,15.25
2023-01-29T03:21:48.949Z,15.52
2023-01-29T03:25:20.850Z,17.57
2023-01-29T03:28:43.484Z,16.42
2023-01-29T03:32:06.997Z,16.15
2023-01-29T03:35:13.248Z,15.57
2023-01-29T03:38:17.322Z,15.30
2023-01-29T03:41:31.543Z,16.65
2023-01-29T03:44:48.927Z,16.50
2023-01-29T03:48:00.952Z,15.27
2023-01-29T03:51:26.476Z,15.20
2023-01-29T03:54:44.385Z,15.30
2023-01-29T03:58:00.020Z,16.20
2023-01-29T04:01:14.775Z,16.25
2023-01-29T04:04:27.077Z,15.52
2023-01-29T04:07:33.500Z,16.50
2023-01-29T04:10:41.557Z,15.02
2023-01-29T04:13:47.031Z,15.52
2023-01-29T04:16:56.103Z,15.85
2023-01-29T04:20:01.753Z,14.83
2023-01-29T04:23:07.540Z,16.25
2023-01-29T04:26:37.850Z,15.05
2023-01-29T04:30:06.763Z,15.53
2023-01-29T04:33:20.138Z,15.02
2023-01-29T04:37:07.798Z,16.02
2023-01-29T04:40:24.012Z,15.52
2023-01-29T04:43:56.969Z,15.88
2023-01-29T04:47:18.935Z,16.20
2023-01-29T04:50:26.866Z,15.75
2023-01-29T04:53:50.119Z,16.70
2023-01-29T04:57:02.780Z,16.52
2023-01-29T05:00:13.178Z,19.27
2023-01-29T05:03:17.423Z,25.50
2023-01-29T05:06:21.537Z,27.58
2023-01-29T05:09:26.270Z,24.50
2023-01-29T05:12:31.387Z,18.87
2023-01-29T05:15:39.394Z,16.23
2023-01-29T05:18:43.077Z,17.23
2023-01-29T05:21:49.438Z,17.05
2023-01-29T05:24:53.113Z,16.23
2023-01-29T05:28:14.131Z,17.70
2023-01-29T05:31:17.575Z,18.02
2023-01-29T05:34:21.371Z,17.10
2023-01-29T05:37:24.584Z,18.25
2023-01-29T05:40:28.522Z,17.87
2023-01-29T05:43:31.729Z,16.87
2023-01-29T05:46:35.108Z,16.95
2023-01-29T05:49:38.859Z,17.85
2023-01-29T05:52:42.929Z,16.08
2023-01-29T05:55:48.014Z,15.60
2023-01-29T05:58:51.770Z,16.62
2023-01-29T06:01:55.013Z,16.08
2023-01-29T06:04:58.728Z,15.30
2023-01-29T06:08:01.899Z,16.17
2023-01-29T06:11:12.402Z,17.27
2023-01-29T06:14:15.519Z,17.80
2023-01-29T06:17:19.030Z,17.17
2023-01-29T06:20:23.079Z,15.32
2023-01-29T06:23:26.549Z,16.45
2023-01-29T06:26:30.654Z,16.33
2023-01-29T06:29:36.651Z,15.82
2023-01-29T06:32:41.422Z,13.45
2023-01-29T06:35:44.944Z,13.33
2023-01-29T06:38:48.438Z,12.68
2023-01-29T06:41:52.183Z,12.82
2023-01-29T06:44:56.596Z,12.93
2023-01-29T06:48:01.582Z,10.73
2023-01-29T06:51:06.749Z,10.70
2023-01-29T06:54:11.336Z,12.13
2023-01-29T06:57:14.541Z,11.90
2023-01-29T07:00:19.248Z,11.48
2023-01-29T07:03:22.534Z,9.38
2023-01-29T07:06:29.593Z,8.93
2023-01-29T07:09:33.028Z,8.63
2023-01-29T07:12:37.089Z,10.27
2023-01-29T07:15:40.590Z,12.30
2023-01-29T07:18:44.009Z,10.23
2023-01-29T07:21:47.151Z,10.30
2023-01-29T07:24:50.674Z,11.35
2023-01-29T07:27:54.031Z,12.83
2023-01-29T07:30:59.448Z,14.32
2023-01-29T07:34:03.247Z,13.48
2023-01-29T07:37:08.119Z,15.50
2023-01-29T07:40:12.131Z,16.92
2023-01-29T07:43:16.934Z,16.33
2023-01-29T07:46:21.095Z,14.38
2023-01-29T07:49:24.802Z,16.00
2023-01-29T07:52:30.822Z,19.75
2023-01-29T07:55:34.503Z,22.52
2023-01-29T07:58:37.763Z,19.40
2023-01-29T08:01:41.133Z,21.15
2023-01-29T08:04:44.627Z,18.62
2023-01-29T08:08:05.822Z,16.83
2023-01-29T08:11:10.453Z,16.45
2023-01-29T08:14:13.563Z,15.90
2023-01-29T08:17:17.865Z,13.10
2023-01-29T08:20:22.566Z,10.02
2023-01-29T08:23:27.448Z,102.95
2023-01-29T08:26:30.920Z,79.12
2023-01-29T08:29:34.403Z,21.70
2023-01-29T08:32:38.214Z,9.23
2023-01-29T08:35:41.690Z,19.25
2023-01-29T08:38:44.751Z,12.07
2023-01-29T08:41:48.086Z,7.97
2023-01-29T08:44:51.503Z,9.65
2023-01-29T08:47:55.070Z,8.05
2023-01-29T08:50:59.825Z,8.80
2023-01-29T08:54:03.381Z,6.85
2023-01-29T08:57:08.613Z,7.18
2023-01-29T09:00:19.861Z,6.97
2023-01-29T09:03:23.498Z,7.47
2023-01-29T09:06:26.845Z,8.35
2023-01-29T09:09:30.349Z,7.90
2023-01-29T09:12:34.144Z,6.75
2023-01-29T09:15:37.708Z,6.22
2023-01-29T09:18:40.997Z,6.78
2023-01-29T09:21:45.205Z,22.37
2023-01-29T09:24:48.641Z,9.88
2023-01-29T09:27:52.036Z,10.85
2023-01-29T09:30:55.827Z,12.77
2023-01-29T09:33:59.399Z,6.87
2023-01-29T09:37:02.786Z,6.00
2023-01-29T09:40:08.093Z,5.63
2023-01-29T09:43:19.808Z,6.62
2023-01-29T09:46:38.728Z,7.53
2023-01-29T09:49:47.407Z,6.20
2023-01-29T09:53:07.519Z,6.60
2023-01-29T09:56:21.695Z,6.50
2023-01-29T09:59:28.099Z,6.80
2023-01-29T10:02:37.252Z,7.43
2023-01-29T10:05:55.671Z,6.12
2023-01-29T10:08:59.310Z,6.03
2023-01-29T10:12:13.284Z,6.30
2023-01-29T10:15:34.987Z,5.55
2023-01-29T10:19:21.857Z,7.30
2023-01-29T10:22:27.815Z,6.15
2023-01-29T10:25:35.904Z,6.57
2023-01-29T10:28:48.476Z,5.10
2023-01-29T10:31:57.302Z,5.82
2023-01-29T10:35:22.174Z,5.67
2023-01-29T10:38:38.836Z,5.60
2023-01-29T10:42:20.084Z,5.80
2023-01-29T10:45:44.709Z,5.20
2023-01-29T10:49:24.922Z,4.72
2023-01-29T10:52:44.547Z,5.95
2023-01-29T10:56:20.989Z,5.60
2023-01-29T10:59:28.976Z,5.12
2023-01-29T11:02:34.076Z,5.55
2023-01-29T11:06:16.537Z,4.30
2023-01-29T11:09:39.892Z,5.23
2023-01-29T11:12:44.864Z,5.05
2023-01-29T11:15:53.044Z,5.28
2023-01-29T11:18:59.674Z,5.80
2023-01-29T11:22:04.587Z,5.45
2023-01-29T11:25:16.283Z,5.62
2023-01-29T11:28:43.307Z,4.97
2023-01-29T11:31:47.835Z,5.72
2023-01-29T11:35:03.801Z,5.00
2023-01-29T11:38:30.453Z,5.40
2023-01-29T11:41:44.004Z,4.50
2023-01-29T11:44:47.867Z,5.78
2023-01-29T11:47:55.456Z,5.10
2023-01-29T11:51:01.206Z,6.27
2023-01-29T11:54:06.644Z,4.80
2023-01-29T11:57:38.905Z,4.85
2023-01-29T12:00:48.304Z,4.75
2023-01-29T12:03:54.076Z,4.12
2023-01-29T12:06:58.894Z,5.68
2023-01-29T12:10:03.616Z,5.03
2023-01-29T12:13:09.933Z,6.07
2023-01-29T12:16:36.968Z,5.00
2023-01-29T12:19:49.246Z,4.50
2023-01-29T12:23:11.906Z,5.53
2023-01-29T12:26:22.192Z,4.40
2023-01-29T12:29:45.883Z,6.03
2023-01-29T12:33:08.834Z,5.80
2023-01-29T12:36:47.233Z,5.07
2023-01-29T12:39:53.574Z,5.10
2023-01-29T12:43:04.993Z,4.80
2023-01-29T12:46:24.653Z,5.33
2023-01-29T12:49:34.364Z,5.82
2023-01-29T12:52:50.975Z,6.05
2023-01-29T12:56:02.829Z,5.63
2023-01-29T12:59:22.121Z,4.85
2023-01-29T13:02:30.098Z,5.05
2023-01-29T13:05:54.650Z,5.07
2023-01-29T13:09:03.651Z,5.60
2023-01-29T13:12:18.820Z,5.80
2023-01-29T13:15:29.044Z,5.55
2023-01-29T13:18:55.886Z,4.77
2023-01-29T13:22:03.362Z,6.20
2023-01-29T13:25:16.296Z,5.12
2023-01-29T13:28:23.272Z,5.07
2023-01-29T13:31:49.084Z,6.30
2023-01-29T13:34:57.356Z,5.10
2023-01-29T13:38:01.030Z,4.75
2023-01-29T13:41:12.891Z,4.22
2023-01-29T13:44:27.479Z,4.93
2023-01-29T13:47:33.706Z,4.53
2023-01-29T13:50:43.375Z,4.33
2023-01-29T13:54:01.974Z,4.10
2023-01-29T13:57:06.109Z,4.60
2023-01-29T14:00:34.538Z,4.80
2023-01-29T14:04:02.236Z,4.70
2023-01-29T14:07:45.336Z,4.72
2023-01-29T14:11:17.816Z,5.32
2023-01-29T14:14:50.759Z,6.10
2023-01-29T14:18:09.005Z,4.62
2023-01-29T14:21:42.007Z,4.37
2023-01-29T14:24:46.077Z,4.20
2023-01-29T14:27:50.232Z,4.03
2023-01-29T14:30:57.117Z,5.07
2023-01-29T14:34:04.472Z,5.80
2023-01-29T14:37:15.474Z,5.10
2023-01-29T14:40:19.372Z,4.45
2023-01-29T14:43:23.079Z,4.28
2023-01-29T14:46:36.129Z,4.28
2023-01-29T14:49:55.807Z,4.57
2023-01-29T14:53:13.803Z,5.03
2023-01-29T14:56:27.599Z,3.93
2023-01-29T14:59:32.859Z,5.07
2023-01-29T15:02:43.331Z,4.97
2023-01-29T15:05:52.272Z,5.27
2023-01-29T15:09:08.079Z,5.00
2023-01-29T15:12:34.081Z,5.25
2023-01-29T15:15:46.282Z,5.28
2023-01-29T15:19:00.555Z,5.05
2023-01-29T15:22:19.659Z,3.97
2023-01-29T15:25:26.483Z,5.20
2023-01-29T15:28:34.079Z,5.40
2023-01-29T15:31:43.038Z,6.05
2023-01-29T15:34:48.769Z,4.55
2023-01-29T15:38:17.098Z,5.27
2023-01-29T15:41:24.349Z,5.32
2023-01-29T15:44:27.980Z,5.90
2023-01-29T15:47:33.381Z,5.40
2023-01-29T15:50:41.904Z,6.10
2023-01-29T15:53:53.925Z,5.70
2023-01-29T15:56:59.744Z,5.20
2023-01-29T16:00:06.290Z,5.63
2023-01-29T16:03:16.238Z,6.30
2023-01-29T16:06:24.268Z,5.95
2023-01-29T16:09:29.988Z,6.57
2023-01-29T16:12:39.038Z,7.35
2023-01-29T16:15:57.008Z,8.10
2023-01-29T16:19:01.679Z,6.60
2023-01-29T16:22:09.802Z,7.30
2023-01-29T16:25:16.815Z,6.82
2023-01-29T16:28:23.061Z,6.80
2023-01-29T16:31:33.876Z,6.43
2023-01-29T16:34:45.824Z,7.22
2023-01-29T16:37:52.476Z,6.57
2023-01-29T16:41:21.908Z,9.33
2023-01-29T16:44:36.690Z,9.13
2023-01-29T16:47:42.077Z,8.50
2023-01-29T16:50:55.133Z,7.87
2023-01-29T16:54:18.939Z,7.90
2023-01-29T16:57:27.229Z,8.48
2023-01-29T17:00:32.928Z,8.13
2023-01-29T17:03:40.242Z,7.90
2023-01-29T17:06:49.568Z,8.20
2023-01-29T17:10:00.931Z,7.10
2023-01-29T17:13:11.107Z,7.90
2023-01-29T17:16:21.302Z,8.35
2023-01-29T17:19:26.469Z,9.63
2023-01-29T17:22:33.867Z,9.07
2023-01-29T17:25:38.906Z,8.63
2023-01-29T17:28:45.575Z,8.27
2023-01-29T17:31:53.304Z,8.48
2023-01-29T17:35:00.673Z,9.43
2023-01-29T17:38:11.499Z,8.07
2023-01-29T17:41:31.068Z,8.27
2023-01-29T17:44:35.958Z,8.37
2023-01-29T17:47:41.600Z,8.57
2023-01-29T17:50:50.468Z,8.80
2023-01-29T17:53:55.809Z,8.10
2023-01-29T17:57:00.909Z,9.80
2023-01-29T18:00:26.751Z,10.18
2023-01-29T18:03:32.519Z,9.68
2023-01-29T18:06:38.788Z,9.87
2023-01-29T18:09:45.952Z,9.18
2023-01-29T18:12:52.948Z,10.57
2023-01-29T18:16:00.757Z,10.73
2023-01-29T18:19:16.431Z,10.00
2023-01-29T18:22:21.994Z,11.00
2023-01-29T18:25:26.907Z,11.70
2023-01-29T18:28:32.103Z,12.75
2023-01-29T18:31:37.737Z,10.85
2023-01-29T18:34:43.418Z,11.23
2023-01-29T18:37:48.707Z,12.30
2023-01-29T18:40:56.546Z,13.23
2023-01-29T18:44:00.569Z,12.50
2023-01-29T18:47:07.976Z,13.60
2023-01-29T18:50:13.294Z,13.38
2023-01-29T18:53:22.202Z,15.18
2023-01-29T18:56:26.852Z,12.77
2023-01-29T18:59:32.895Z,10.75
2023-01-29T19:02:38.997Z,12.68
2023-01-29T19:05:44.981Z,11.15
2023-01-29T19:08:50.077Z,12.37
2023-01-29T19:11:57.277Z,11.20
2023-01-29T19:15:02.502Z,10.75
2023-01-29T19:18:08.462Z,10.97
2023-01-29T19:21:15.649Z,10.80
2023-01-29T19:24:24.236Z,11.85
2023-01-29T19:27:31.098Z,11.48
2023-01-29T19:30:36.611Z,10.48
2023-01-29T19:33:42.094Z,10.25
2023-01-29T19:36:48.117Z,10.27
2023-01-29T19:39:54.483Z,9.90
2023-01-29T19:43:00.331Z,9.75
2023-01-29T19:46:05.037Z,9.38
2023-01-29T19:49:10.836Z,10.23
2023-01-29T19:52:52.275Z,9.98
2023-01-29T19:55:59.567Z,11.80
2023-01-29T19:59:09.116Z,11.98
2023-01-29T20:02:16.049Z,10.93
2023-01-29T20:05:27.619Z,10.88
2023-01-29T20:08:33.508Z,11.77
2023-01-29T20:11:43.053Z,10.53
2023-01-29T20:14:53.562Z,10.02
2023-01-29T20:17:59.719Z,9.15
2023-01-29T20:21:11.620Z,8.87
2023-01-29T20:24:19.434Z,9.13
2023-01-29T20:27:24.871Z,9.32
2023-01-29T20:30:31.739Z,9.63
2023-01-29T20:33:39.642Z,8.35
2023-01-29T20:36:48.232Z,12.77
2023-01-29T20:39:55.468Z,11.38
2023-01-29T20:43:01.893Z,11.10
2023-01-29T20:46:06.415Z,16.42
2023-01-29T20:49:12.972Z,15.50
2023-01-29T20:52:18.149Z,15.23
2023-01-29T20:55:23.850Z,14.07
2023-01-29T20:58:29.383Z,14.32
2023-01-29T21:01:34.919Z,14.48
2023-01-29T21:04:40.411Z,13.85
2023-01-29T21:07:45.708Z,11.00
2023-01-29T21:10:54.895Z,12.07
2023-01-29T21:14:00.565Z,9.50
2023-01-29T21:17:06.285Z,9.27
2023-01-29T21:20:12.367Z,9.55
2023-01-29T21:23:16.799Z,9.43
2023-01-29T21:26:21.063Z,10.80
2023-01-29T21:29:29.264Z,8.98
2023-01-29T21:32:35.150Z,10.07
2023-01-29T21:35:39.363Z,9.45
2023-01-29T21:38:45.219Z,10.50
2023-01-29T21:42:10.267Z,10.35
2023-01-29T21:45:15.325Z,9.50
2023-01-29T21:48:19.242Z,9.57
2023-01-29T21:51:23.905Z,9.80
2023-01-29T21:54:31.107Z,9.80
2023-01-29T21:57:35.265Z,10.32
2023-01-29T22:00:38.786Z,10.63
2023-01-29T22:03:42.271Z,10.48
2023-01-29T22:06:45.504Z,11.70
2023-01-29T22:09:49.964Z,13.57
2023-01-29T22:12:53.231Z,12.85
2023-01-29T22:15:56.757Z,11.83
2023-01-29T22:19:00.136Z,13.38
2023-01-29T22:22:04.125Z,13.85
2023-01-29T22:25:07.859Z,15.03
2023-01-29T22:28:11.527Z,15.40
2023-01-29T22:31:15.287Z,14.55
2023-01-29T22:34:18.663Z,15.50
2023-01-29T22:37:22.271Z,14.63
2023-01-29T22:40:26.479Z,15.55
2023-01-29T22:43:29.753Z,19.02
2023-01-29T22:46:33.323Z,17.27
2023-01-29T22:49:36.842Z,16.23
2023-01-29T22:52:42.980Z,15.95
2023-01-29T22:55:54.931Z,15.73
2023-01-29T22:59:00.709Z,15.70
2023-01-29T23:02:04.779Z,18.17
2023-01-29T23:05:08.559Z,16.02
2023-01-29T23:08:11.691Z,16.45
2023-01-29T23:11:19.964Z,18.17
2023-01-29T23:14:23.087Z,18.23
2023-01-29T23:17:26.443Z,15.20
2023-01-29T23:20:29.679Z,16.27
2023-01-29T23:23:35.327Z,14.68
2023-01-29T23:26:57.298Z,14.50
2023-01-29T23:30:01.769Z,14.75
2023-01-29T23:33:07.445Z,13.25
2023-01-29T23:36:11.091Z,16.50
2023-01-29T23:39:15.017Z,15.75
2023-01-29T23:42:18.706Z,16.92
2023-01-29T23:45:22.434Z,16.85
2023-01-29T23:48:26.303Z,15.63
2023-01-29T23:51:29.562Z,16.30
2023-01-29T23:54:33.172Z,15.80
2023-01-29T23:57:36.357Z,13.80
